Time;durP1;ratioP1;P1;durP2;ratioP2;P2;SDS_P1;SDS_P2;PMS_P1;PMS_P2;Temp;Humidity;BMP_temperature;BMP_pressure;BME280_temperature;BME280_humidity;BME280_pressure;Samples;Min_cycle;Max_cycle;Signal;HPM_P1;HPM_P2
2022/07/16 00:02:54;;;;;;;;;3.00;3.00;;;;;20.88;86.33;101692.41;5046907;28;45726;-79
2022/07/16 00:05:19;;;;;;;;;3.67;3.00;;;;;20.96;85.77;101705.94;5044243;28;45733;-79
2022/07/16 00:07:45;;;;;;;;;5.33;3.00;;;;;20.94;86.69;101710.91;5039134;28;45881;-77
2022/07/16 00:10:11;;;;;;;;;11.67;8.67;;;;;20.93;86.95;101714.81;5046780;28;45681;-77
2022/07/16 00:12:37;;;;;;;;;2.00;2.00;;;;;20.80;86.31;101691.72;5034983;28;45905;-77
2022/07/16 00:15:04;;;;;;;;;2.00;2.00;;;;;20.69;86.37;101673.16;5038466;28;45529;-80
2022/07/16 00:17:30;;;;;;;;;6.33;3.00;;;;;20.84;86.77;101697.66;5044488;28;45343;-78
2022/07/16 00:19:55;;;;;;;;;2.00;2.00;;;;;20.87;87.26;101708.28;5048860;28;45373;-79
2022/07/16 00:22:21;;;;;;;;;2.00;2.00;;;;;20.73;86.90;101679.06;5051879;28;45721;-78
2022/07/16 00:24:47;;;;;;;;;1.67;1.67;;;;;20.84;86.99;101702.38;5036619;28;45371;-80
2022/07/16 00:27:12;;;;;;;;;1.33;1.33;;;;;20.79;86.62;101698.41;5033817;28;45739;-79
2022/07/16 00:29:38;;;;;;;;;1.00;1.00;;;;;20.87;86.50;101710.22;5046431;28;45860;-77
2022/07/16 00:32:06;;;;;;;;;4.00;3.00;;;;;20.85;86.55;101707.69;5033566;28;45391;-79
2022/07/16 00:34:33;;;;;;;;;4.00;3.00;;;;;20.77;87.22;101702.56;5016904;28;45512;-78
2022/07/16 00:36:58;;;;;;;;;3.00;2.00;;;;;20.79;87.43;101706.78;5050188;28;45792;-79
2022/07/16 00:39:24;;;;;;;;;2.00;2.00;;;;;20.78;87.78;101712.63;5053615;28;46052;-78
2022/07/16 00:41:49;;;;;;;;;2.00;2.00;;;;;20.76;88.26;101707.28;5040008;28;45442;-77
2022/07/16 00:44:17;;;;;;;;;5.00;3.00;;;;;20.64;87.83;101692.53;5048179;28;45603;-79
2022/07/16 00:46:45;;;;;;;;;2.00;2.00;;;;;20.74;87.70;101711.44;5017646;28;45446;-78
2022/07/16 00:49:10;;;;;;;;;2.33;2.33;;;;;20.70;88.32;101707.44;5051650;28;46222;-77
2022/07/16 00:51:41;;;;;;;;;3.00;1.00;;;;;20.72;88.19;101710.81;5028236;28;45561;-78
2022/07/16 00:54:06;;;;;;;;;3.00;3.00;;;;;20.63;88.83;101694.50;5042298;28;45513;-78
2022/07/16 00:56:32;;;;;;;;;2.00;2.00;;;;;20.49;88.48;101679.19;5047536;28;45448;-80
2022/07/16 00:58:58;;;;;;;;;2.00;2.00;;;;;20.67;88.65;101705.16;5040115;28;46441;-78
2022/07/16 01:01:23;;;;;;;;;2.00;2.00;;;;;20.41;89.14;101668.47;5041250;28;45175;-80
2022/07/16 01:03:49;;;;;;;;;2.00;2.00;;;;;20.61;89.14;101707.84;5045961;28;44859;-79
2022/07/16 01:06:15;;;;;;;;;2.00;2.00;;;;;20.55;89.51;101691.28;5042964;28;45529;-78
2022/07/16 01:08:43;;;;;;;;;2.00;2.00;;;;;20.46;90.23;101679.69;5043723;28;46388;-78
2022/07/16 01:11:11;;;;;;;;;4.33;3.00;;;;;20.56;89.91;101704.97;5036676;28;45513;-80
2022/07/16 01:13:42;;;;;;;;;2.67;2.67;;;;;20.57;90.08;101706.66;5034553;28;45821;-79
2022/07/16 01:16:08;;;;;;;;;2.67;2.67;;;;;20.52;89.94;101700.97;5036220;28;45501;-80
2022/07/16 01:18:35;;;;;;;;;2.00;2.00;;;;;20.53;90.01;101702.69;5051542;28;46208;-78
2022/07/16 01:21:01;;;;;;;;;1.33;1.33;;;;;20.37;90.27;101684.84;5064780;28;45362;-78
2022/07/16 01:23:27;;;;;;;;;3.00;2.00;;;;;20.51;90.29;101712.38;5042804;28;45244;-79
2022/07/16 01:25:53;;;;;;;;;2.33;2.00;;;;;20.47;91.12;101706.47;5040053;28;45996;-79
2022/07/16 01:28:19;;;;;;;;;1.00;1.00;;;;;20.48;91.02;101708.19;5036924;28;46767;-79
2022/07/16 01:30:46;;;;;;;;;2.00;2.00;;;;;20.45;91.14;101711.47;5038979;28;45793;-79
2022/07/16 01:33:25;;;;;;;;;3.00;3.00;;;;;20.39;91.25;101709.66;5033954;28;45851;-75
2022/07/16 01:35:56;;;;;;;;;1.00;1.00;;;;;20.37;91.86;101704.34;5040685;28;45762;-80
2022/07/16 01:38:22;;;;;;;;;3.00;2.00;;;;;20.39;91.82;101716.09;5036935;28;47673;-80
2022/07/16 01:40:47;;;;;;;;;3.33;2.33;;;;;20.33;91.58;101702.31;5059593;28;45456;-78
2022/07/16 01:43:17;;;;;;;;;3.00;2.00;;;;;20.28;91.88;101701.16;5047271;28;45736;-79
2022/07/16 01:45:44;;;;;;;;;2.00;2.00;;;;;20.32;92.29;101717.38;5039678;28;45628;-78
2022/07/16 01:48:11;;;;;;;;;3.00;1.33;;;;;20.23;93.02;101700.22;5019789;28;46225;-78
2022/07/16 01:50:36;;;;;;;;;3.67;2.00;;;;;20.28;93.01;101719.78;5037661;28;45961;-79
2022/07/16 01:53:02;;;;;;;;;6.00;1.00;;;;;20.25;93.63;101721.16;5038318;28;45672;-79
2022/07/16 01:55:28;;;;;;;;;1.33;1.33;;;;;20.13;94.13;101700.00;5039800;28;45654;-79
2022/07/16 01:57:54;;;;;;;;;1.00;1.00;;;;;20.22;93.92;101721.63;5032127;28;47931;-78
2022/07/16 02:00:19;;;;;;;;;3.33;2.00;;;;;20.20;94.11;101723.81;5030351;28;45726;-79
2022/07/16 02:02:44;;;;;;;;;1.00;1.00;;;;;20.17;94.22;101712.34;5037000;28;45494;-79
2022/07/16 02:05:10;;;;;;;;;1.00;1.00;;;;;20.16;95.16;101717.06;5039593;28;45580;-77
2022/07/16 02:07:35;;;;;;;;;2.00;2.00;;;;;20.13;95.43;101712.00;5037040;28;47089;-79
2022/07/16 02:10:01;;;;;;;;;2.67;2.67;;;;;20.08;96.13;101711.91;5040649;28;45570;-76
2022/07/16 02:12:26;;;;;;;;;1.00;1.00;;;;;20.08;96.83;101712.75;5046010;28;45317;-78
2022/07/16 02:14:52;;;;;;;;;2.00;2.00;;;;;19.98;97.17;101706.97;5038440;28;46068;-77
2022/07/16 02:17:17;;;;;;;;;4.00;3.00;;;;;19.98;97.33;101712.53;5027956;28;47049;-77
2022/07/16 02:19:43;;;;;;;;;3.00;2.00;;;;;19.99;97.56;101716.19;5044435;28;45429;-78
2022/07/16 02:22:09;;;;;;;;;5.67;5.67;;;;;19.96;98.05;101717.53;5030722;28;45668;-78
2022/07/16 02:24:34;;;;;;;;;6.33;4.00;;;;;19.88;98.43;101706.75;5039738;28;45380;-78
2022/07/16 02:27:00;;;;;;;;;4.00;4.00;;;;;19.77;98.25;101691.78;5041088;28;45734;-79
2022/07/16 02:29:25;;;;;;;;;4.33;3.00;;;;;19.86;98.50;101715.38;5030299;28;45324;-77
2022/07/16 02:31:51;;;;;;;;;7.67;4.33;;;;;19.82;98.64;101708.63;5058323;28;44891;-77
2022/07/16 02:34:16;;;;;;;;;6.67;3.00;;;;;19.86;98.72;101717.31;5044285;28;46226;-77
2022/07/16 02:36:42;;;;;;;;;4.00;3.00;;;;;19.82;98.96;101716.09;5052508;28;45467;-76
2022/07/16 02:39:07;;;;;;;;;4.33;3.67;;;;;19.74;99.86;101711.75;5056046;28;45556;-77
2022/07/16 02:41:32;;;;;;;;;5.00;2.67;;;;;19.78;100.00;101717.72;5060556;28;45818;-78
2022/07/16 02:43:58;;;;;;;;;3.00;3.00;;;;;19.74;100.00;101720.09;5053224;28;45897;-78
2022/07/16 02:46:23;;;;;;;;;6.00;6.00;;;;;19.65;100.00;101716.84;5041534;28;45578;-78
2022/07/16 02:48:49;;;;;;;;;1.33;1.33;;;;;19.65;100.00;101727.97;5053469;28;45405;-78
2022/07/16 02:51:18;;;;;;;;;1.67;1.67;;;;;19.49;100.00;101707.34;5039511;28;45708;-80
2022/07/16 02:53:43;;;;;;;;;3.00;3.00;;;;;19.57;100.00;101720.03;5050469;28;45721;-77
2022/07/16 02:56:09;;;;;;;;;3.00;3.00;;;;;19.44;100.00;101715.56;5036101;28;46145;-78
2022/07/16 02:58:34;;;;;;;;;4.00;3.00;;;;;19.43;100.00;101713.03;5035145;28;46269;-78
2022/07/16 03:01:00;;;;;;;;;5.00;4.00;;;;;19.38;100.00;101714.59;5052855;28;45729;-78
2022/07/16 03:03:25;;;;;;;;;12.00;8.67;;;;;19.25;100.00;101695.41;5052386;28;46008;-77
2022/07/16 03:05:51;;;;;;;;;4.00;4.00;;;;;19.31;100.00;101715.84;5056110;28;45724;-77
2022/07/16 03:08:16;;;;;;;;;4.00;3.00;;;;;19.30;100.00;101708.59;5032076;28;45525;-77
2022/07/16 03:10:42;;;;;;;;;8.67;5.33;;;;;19.21;100.00;101705.34;5058084;28;45359;-77
2022/07/16 03:13:07;;;;;;;;;4.00;3.33;;;;;19.17;100.00;101696.63;5060810;28;45384;-77
2022/07/16 03:15:33;;;;;;;;;3.33;3.00;;;;;19.16;100.00;101703.28;5042062;28;46724;-79
2022/07/16 03:17:58;;;;;;;;;4.00;4.00;;;;;19.19;100.00;101716.72;5043991;28;45755;-78
2022/07/16 03:20:24;;;;;;;;;3.00;3.00;;;;;19.17;100.00;101720.81;5043701;28;45759;-78
2022/07/16 03:22:49;;;;;;;;;4.67;4.00;;;;;19.15;100.00;101717.44;5042800;28;46023;-77
2022/07/16 03:25:15;;;;;;;;;5.00;3.00;;;;;19.09;100.00;101719.25;5056560;28;45434;-78
2022/07/16 03:27:41;;;;;;;;;5.33;4.00;;;;;19.15;100.00;101720.22;5045020;28;45415;-78
2022/07/16 03:30:08;;;;;;;;;7.33;7.33;;;;;19.08;100.00;101712.00;5053287;28;44823;-78
2022/07/16 03:32:33;;;;;;;;;6.00;5.00;;;;;19.09;100.00;101718.38;5055194;28;45477;-78
2022/07/16 03:35:02;;;;;;;;;3.33;3.33;;;;;19.11;100.00;101722.63;5023379;28;46757;-77
2022/07/16 03:37:27;;;;;;;;;4.67;4.67;;;;;19.11;100.00;101716.22;5045831;28;45475;-77
2022/07/16 03:39:53;;;;;;;;;5.00;4.00;;;;;19.09;100.00;101722.03;5042698;28;45463;-79
2022/07/16 03:42:18;;;;;;;;;3.67;2.67;;;;;19.04;100.00;101717.19;5038624;28;45717;-77
2022/07/16 03:44:43;;;;;;;;;11.00;7.00;;;;;19.09;100.00;101730.38;5042496;28;45514;-77
2022/07/16 03:47:09;;;;;;;;;6.67;6.00;;;;;19.08;100.00;101720.31;5052071;28;45775;-77
2022/07/16 03:49:34;;;;;;;;;8.33;7.33;;;;;19.03;100.00;101707.16;5047629;28;45881;-77
2022/07/16 03:52:00;;;;;;;;;7.67;6.00;;;;;19.09;100.00;101722.03;5027573;28;45800;-77
2022/07/16 03:54:25;;;;;;;;;9.67;8.67;;;;;19.08;100.00;101725.06;5041479;28;46512;-77
2022/07/16 03:56:51;;;;;;;;;8.67;7.33;;;;;19.09;100.00;101724.81;5034280;28;46667;-76
2022/07/16 03:59:16;;;;;;;;;5.00;4.00;;;;;19.07;100.00;101720.56;5038690;28;45295;-75
2022/07/16 04:01:42;;;;;;;;;3.67;3.67;;;;;19.09;100.00;101724.81;5026704;28;46978;-78
2022/07/16 04:04:07;;;;;;;;;6.00;4.67;;;;;19.11;100.00;101730.97;5028034;28;47108;-77
2022/07/16 04:06:32;;;;;;;;;6.67;6.67;;;;;19.12;100.00;101729.88;5046158;28;45533;-78
2022/07/16 04:08:58;;;;;;;;;8.67;7.00;;;;;19.09;100.00;101724.81;5041209;28;45526;-77
2022/07/16 04:11:23;;;;;;;;;10.67;7.33;;;;;19.17;100.00;101735.56;5033865;28;45881;-78
2022/07/16 04:13:49;;;;;;;;;7.67;4.00;;;;;19.08;100.00;101720.31;5037470;28;45688;-78
2022/07/16 04:16:14;;;;;;;;;6.00;6.00;;;;;19.34;100.00;101740.38;5049537;28;45423;-75
2022/07/16 04:18:40;;;;;;;;;5.33;4.00;;;;;19.52;100.00;101742.16;5038939;28;45771;-77
2022/07/16 04:21:06;;;;;;;;;8.00;4.00;;;;;19.74;100.00;101743.19;5044532;28;45626;-76
2022/07/16 04:23:32;;;;;;;;;7.33;6.33;;;;;20.01;100.00;101748.25;5033183;28;46729;-77
2022/07/16 04:25:57;;;;;;;;;3.00;3.00;;;;;20.31;100.00;101749.09;5034475;28;45729;-78
2022/07/16 04:28:23;;;;;;;;;4.00;4.00;;;;;20.67;100.00;101749.78;5023523;28;45479;-78
2022/07/16 04:30:48;;;;;;;;;2.67;2.67;;;;;21.02;100.00;101749.53;5037516;28;45600;-77
2022/07/16 04:33:14;;;;;;;;;3.00;3.00;;;;;21.43;100.00;101752.06;5043386;28;45598;-77
2022/07/16 04:35:39;;;;;;;;;4.00;4.00;;;;;21.76;98.47;101733.56;5045476;28;45755;-78
2022/07/16 04:38:05;;;;;;;;;4.00;4.00;;;;;22.32;95.93;101758.53;5028939;28;45942;-77
2022/07/16 04:40:31;;;;;;;;;5.00;5.00;;;;;22.71;93.13;101745.22;5053473;28;45558;-77
2022/07/16 04:42:56;;;;;;;;;4.00;4.00;;;;;23.25;90.29;101761.03;5050174;28;45420;-76
2022/07/16 04:45:23;;;;;;;;;4.00;4.00;;;;;23.71;87.09;101757.66;5053759;28;45895;-77
2022/07/16 04:47:48;;;;;;;;;4.00;3.00;;;;;24.25;84.52;101761.22;5035480;28;44781;-78
2022/07/16 04:50:17;;;;;;;;;5.33;3.33;;;;;24.85;80.75;101764.41;5050049;28;45632;-79
2022/07/16 04:52:42;;;;;;;;;3.00;3.00;;;;;25.35;74.90;101747.84;5043867;28;46963;-79
2022/07/16 04:55:09;;;;;;;;;2.33;2.00;;;;;25.98;70.65;101758.53;5042672;28;45605;-78
2022/07/16 04:57:43;;;;;;;;;4.00;4.00;;;;;26.60;66.09;101763.81;5061523;28;45329;-82
2022/07/16 05:00:09;;;;;;;;;3.00;3.00;;;;;27.20;63.05;101760.81;5052554;28;45711;-77
2022/07/16 05:05:20;;;;;;;;;4.33;4.33;;;;;28.44;55.09;101762.94;5045208;28;45983;-78
2022/07/16 05:07:53;;;;;;;;;6.00;5.00;;;;;28.97;52.68;101756.19;5057767;28;45465;-76
2022/07/16 05:10:18;;;;;;;;;4.00;4.00;;;;;29.61;49.50;101758.38;5051937;28;45627;-77
2022/07/16 05:12:44;;;;;;;;;3.00;3.00;;;;;30.17;46.59;101755.53;5047821;28;45445;-78
2022/07/16 05:15:10;;;;;;;;;7.00;5.33;;;;;30.56;44.23;101748.41;5046043;28;45758;-77
2022/07/16 05:17:42;;;;;;;;;7.67;6.00;;;;;31.14;43.33;101758.81;5026592;28;45848;-79
2022/07/16 05:20:08;;;;;;;;;3.00;3.00;;;;;31.71;41.77;101764.91;5038364;28;46489;-78
2022/07/16 05:22:34;;;;;;;;;4.00;4.00;;;;;32.32;39.38;101745.19;5049735;28;45743;-75
2022/07/16 05:24:59;;;;;;;;;3.67;3.00;;;;;32.81;37.75;101745.84;5034519;28;45706;-78
2022/07/16 05:27:49;;;;;;;;;4.67;4.67;;;;;33.24;37.47;101747.78;5019439;28;45832;-82
2022/07/16 05:30:15;;;;;;;;;4.50;3.75;;;;;33.84;35.13;101741.34;5043537;28;45583;-77
2022/07/16 05:32:42;;;;;;;;;5.33;4.00;;;;;34.26;33.95;101725.13;5043948;28;45807;-77
2022/07/16 05:35:09;;;;;;;;;4.67;4.00;;;;;34.96;32.74;101737.94;5046239;28;45477;-78
2022/07/16 05:37:35;;;;;;;;;4.33;4.00;;;;;35.47;31.75;101749.91;5030142;28;45451;-77
2022/07/16 05:40:04;;;;;;;;;4.00;3.00;;;;;35.71;30.91;101737.66;5039327;28;46054;-84
2022/07/16 05:42:30;;;;;;;;;5.00;3.00;;;;;36.15;30.36;101747.59;5037987;28;45415;-76
2022/07/16 05:44:56;;;;;;;;;4.33;4.00;;;;;36.49;29.61;101731.09;5030654;28;45815;-77
2022/07/16 05:47:22;;;;;;;;;3.67;3.00;;;;;37.21;28.34;101761.72;5028463;28;45722;-75
2022/07/16 05:49:47;;;;;;;;;4.50;2.00;;;;;37.32;28.04;101754.25;5039371;28;45526;-76
2022/07/16 05:52:12;;;;;;;;;4.00;3.25;;;;;37.72;27.64;101767.56;5033485;28;46848;-77
2022/07/16 05:54:38;;;;;;;;;4.00;4.00;;;;;38.10;26.96;101757.41;5020155;28;45763;-77
2022/07/16 05:57:03;;;;;;;;;4.00;3.00;;;;;38.49;25.99;101763.19;5037271;28;45833;-78
2022/07/16 05:59:34;;;;;;;;;4.00;4.00;;;;;38.87;25.99;101769.31;5044129;28;45622;-78
2022/07/16 06:02:00;;;;;;;;;4.00;4.00;;;;;39.39;24.60;101767.00;5036892;28;45461;-76
2022/07/16 06:04:25;;;;;;;;;3.67;3.67;;;;;39.65;24.87;101743.25;5019308;28;45654;-75
2022/07/16 06:06:51;;;;;;;;;3.00;3.00;;;;;40.16;24.05;101764.97;5036342;28;46263;-76
2022/07/16 06:09:16;;;;;;;;;4.67;4.67;;;;;40.41;23.22;101762.44;5019101;28;46716;-76
2022/07/16 06:11:42;;;;;;;;;5.33;3.00;;;;;40.59;22.95;101761.88;5017053;28;47145;-76
2022/07/16 06:14:08;;;;;;;;;3.00;3.00;;;;;40.98;22.58;101781.66;5037643;28;45837;-75
2022/07/16 06:16:33;;;;;;;;;2.00;2.00;;;;;41.20;22.51;101779.81;5028080;28;45759;-75
2022/07/16 06:18:59;;;;;;;;;5.00;4.67;;;;;41.41;22.22;101789.88;5032607;28;45537;-79
2022/07/16 06:21:27;;;;;;;;;2.00;2.00;;;;;41.56;21.78;101774.41;5021929;28;45560;-80
2022/07/16 06:23:58;;;;;;;;;3.00;3.00;;;;;41.77;21.35;101793.09;5042977;28;45462;-77
2022/07/16 06:26:36;;;;;;;;;3.00;3.00;;;;;42.00;21.75;101792.84;5043967;28;45532;-77
2022/07/16 06:29:39;;;;;;;;;;;;;;;;;;;;;
2022/07/16 06:32:39;;;;;;;;;4.00;3.00;;;;;43.10;21.38;101798.72;5034819;28;74731;-80
2022/07/16 06:35:56;;;;;;;;;2.00;2.00;;;;;43.79;21.38;101799.56;5020568;28;45489;-77
2022/07/16 06:39:03;;;;;;;;;5.67;2.67;;;;;44.47;19.19;101778.41;4978117;28;45743;-81
2022/07/16 06:41:47;;;;;;;;;3.00;3.00;;;;;44.55;19.06;101777.09;5040334;28;45747;-83
2022/07/16 06:44:12;;;;;;;;;3.33;3.00;;;;;44.71;18.26;101812.19;5031144;28;47595;-79
2022/07/16 06:46:47;;;;;;;;;1.00;1.00;;;;;44.67;18.22;101779.53;5029479;28;45828;-79
2022/07/16 06:49:17;;;;;;;;;2.67;2.67;;;;;44.80;18.05;101808.00;5022463;28;47729;-78
2022/07/16 06:51:49;;;;;;;;;1.67;1.67;;;;;44.68;18.28;101807.25;5025439;28;47559;-76
2022/07/16 06:54:17;;;;;;;;;3.00;3.00;;;;;44.83;18.03;101827.44;5056051;28;45660;-76
2022/07/16 06:56:43;;;;;;;;;2.33;2.33;;;;;44.71;17.96;101777.44;5037511;28;45425;-76
2022/07/16 06:59:08;;;;;;;;;1.33;1.33;;;;;45.40;17.84;101824.16;5041165;28;45604;-78
2022/07/16 07:01:34;;;;;;;;;2.00;2.00;;;;;45.95;17.11;101827.47;5022277;28;45937;-78
2022/07/16 07:04:00;;;;;;;;;3.00;3.00;;;;;46.30;16.66;101820.44;5035038;28;46600;-79
2022/07/16 07:06:25;;;;;;;;;2.00;2.00;;;;;46.60;17.16;101832.56;5039992;28;45854;-79
2022/07/16 07:08:52;;;;;;;;;4.00;2.33;;;;;46.93;17.48;101830.84;5032404;28;45360;-78
2022/07/16 07:11:19;;;;;;;;;2.00;2.00;;;;;47.35;16.84;101834.41;5030360;28;46711;-78
2022/07/16 07:13:46;;;;;;;;;2.67;2.67;;;;;47.60;16.00;101818.63;5046667;28;45771;-79
2022/07/16 07:16:14;;;;;;;;;2.00;2.00;;;;;47.48;15.77;101825.09;5038120;28;45444;-78
2022/07/16 07:18:39;;;;;;;;;1.67;1.67;;;;;47.12;16.12;101817.75;5019829;28;45593;-76
2022/07/16 07:21:06;;;;;;;;;1.00;1.00;;;;;47.41;16.04;101831.00;5039886;28;45602;-78
2022/07/16 07:24:03;;;;;;;;;2.00;2.00;;;;;48.01;17.02;101823.28;5051282;28;46349;-85
2022/07/16 07:26:32;;;;;;;;;2.00;2.00;;;;;48.46;15.77;101824.94;5022267;28;45935;-82
2022/07/16 07:29:03;;;;;;;;;3.00;1.33;;;;;48.99;15.23;101833.78;5041958;28;45851;-82
2022/07/16 07:31:29;;;;;;;;;3.67;2.33;;;;;49.00;14.69;101826.66;5040611;28;46586;-77
2022/07/16 07:33:55;;;;;;;;;1.00;1.00;;;;;49.00;14.32;101834.59;5039036;28;45585;-78
2022/07/16 07:36:21;;;;;;;;;1.33;1.33;;;;;48.95;14.21;101809.72;5035278;28;45597;-79
2022/07/16 07:38:50;;;;;;;;;1.67;1.67;;;;;48.94;13.94;101831.38;5041298;28;45981;-81
2022/07/16 07:41:15;;;;;;;;;3.00;3.00;;;;;48.52;14.16;101833.97;5039459;28;45712;-81
2022/07/16 07:43:41;;;;;;;;;2.00;2.00;;;;;48.06;14.21;101821.94;5042965;28;45520;-79
2022/07/16 07:46:07;;;;;;;;;2.00;2.00;;;;;47.82;14.53;101815.34;5043789;28;45501;-80
2022/07/16 07:48:33;;;;;;;;;2.00;2.00;;;;;47.21;14.42;101814.28;5039832;28;45586;-80
2022/07/16 07:50:59;;;;;;;;;2.00;2.00;;;;;46.86;14.88;101814.38;5044106;28;45878;-81
2022/07/16 07:53:28;;;;;;;;;1.00;1.00;;;;;46.77;14.66;101821.97;5040789;28;46587;-81
2022/07/16 07:55:54;;;;;;;;;3.00;2.00;;;;;46.36;14.84;101791.78;5037744;28;45450;-83
2022/07/16 07:58:35;;;;;;;;;3.00;2.00;;;;;46.37;15.03;101799.25;5059384;28;45823;-87
2022/07/16 08:01:31;;;;;;;;;3.00;2.33;;;;;46.82;15.48;101827.28;5057326;28;45574;-81
2022/07/16 08:04:11;;;;;;;;;;;;;;;;;;;;;
2022/07/16 08:06:57;;;;;;;;;2.00;2.00;;;;;46.26;15.55;101781.16;5051381;28;72063;-84
2022/07/16 08:09:28;;;;;;;;;10.00;9.67;;;;;46.72;15.02;101829.06;5036081;28;45801;-79
2022/07/16 08:11:57;;;;;;;;;6.00;3.67;;;;;46.44;15.27;101801.22;5038125;28;45620;-81
2022/07/16 08:14:23;;;;;;;;;3.67;2.00;;;;;46.49;15.19;101833.50;5021146;28;47283;-79
2022/07/16 08:16:48;;;;;;;;;3.67;2.33;;;;;46.12;15.40;101803.22;5027177;28;45535;-79
2022/07/16 08:19:20;;;;;;;;;2.67;2.00;;;;;46.12;15.19;101787.91;5035797;28;45532;-81
2022/07/16 08:21:48;;;;;;;;;3.00;1.67;;;;;46.36;14.89;101826.59;5036237;28;45542;-81
2022/07/16 08:27:13;;;;;;;;;1.33;1.33;;;;;46.50;14.93;101829.34;5041275;28;45463;-83
2022/07/16 08:29:38;;;;;;;;;5.00;3.33;;;;;46.90;15.16;101828.00;5035817;28;45379;-77
2022/07/16 08:32:05;;;;;;;;;4.00;2.67;;;;;47.33;14.59;101833.22;5046044;28;45893;-85
2022/07/16 08:34:31;;;;;;;;;3.00;2.00;;;;;47.73;14.41;101819.66;5025732;28;47151;-82
2022/07/16 08:37:00;;;;;;;;;2.67;2.67;;;;;48.23;14.23;101817.91;5032772;28;45489;-83
2022/07/16 08:39:25;;;;;;;;;2.67;2.67;;;;;48.22;14.06;101827.88;5056310;28;45830;-85
2022/07/16 08:41:53;;;;;;;;;3.33;3.33;;;;;48.26;14.05;101824.91;5038505;28;46381;-87
2022/07/16 08:44:31;;;;;;;;;2.00;2.00;;;;;48.60;14.19;101824.63;5034726;28;46628;-81
2022/07/16 08:46:57;;;;;;;;;2.00;2.00;;;;;48.92;13.35;101811.44;5046122;28;44850;-78
2022/07/16 08:49:53;;;;;;;;;3.00;3.00;;;;;48.90;13.82;101827.72;5052299;28;45773;-86
2022/07/16 08:52:24;;;;;;;;;3.67;3.00;;;;;49.09;13.79;101818.13;5060528;28;45584;-85
2022/07/16 08:54:54;;;;;;;;;3.00;2.00;;;;;49.11;13.33;101817.66;5063209;28;45932;-86
2022/07/16 08:57:23;;;;;;;;;3.00;3.00;;;;;49.54;13.62;101837.03;5052368;28;44994;-86
2022/07/16 08:59:55;;;;;;;;;3.67;3.67;;;;;49.83;13.33;101795.44;5049396;28;45332;-85
2022/07/16 09:02:21;;;;;;;;;1.00;1.00;;;;;50.44;12.92;101813.31;5052732;28;45503;-84
2022/07/16 09:04:47;;;;;;;;;3.00;3.00;;;;;50.87;12.64;101794.47;5051425;28;47110;-82
2022/07/16 09:07:19;;;;;;;;;2.33;2.33;;;;;51.53;12.33;101783.06;5059084;28;45484;-85
2022/07/16 09:09:45;;;;;;;;;2.00;2.00;;;;;52.45;11.44;101834.13;5036530;28;45435;-83
2022/07/16 09:12:30;;;;;;;;;4.00;4.00;;;;;52.76;11.94;101810.72;5058822;28;45771;-88
2022/07/16 09:14:56;;;;;;;;;2.00;2.00;;;;;53.46;11.58;101837.56;5058858;28;45444;-87
2022/07/16 09:17:26;;;;;;;;;2.00;2.00;;;;;53.64;10.78;101827.16;5074535;28;45860;-86
2022/07/16 09:19:53;;;;;;;;;4.00;2.00;;;;;53.52;11.21;101836.94;5056979;28;45551;-85
2022/07/16 09:22:24;;;;;;;;;2.00;2.00;;;;;53.43;11.00;101831.88;5052893;28;45794;-85
2022/07/16 09:24:54;;;;;;;;;2.33;2.33;;;;;53.17;10.68;101832.09;5057924;28;45414;-83
2022/07/16 09:27:24;;;;;;;;;3.00;2.00;;;;;53.34;11.52;101841.47;5046012;28;45759;-84
2022/07/16 09:29:59;;;;;;;;;2.00;2.00;;;;;53.65;10.81;101837.63;5065123;28;45312;-85
2022/07/16 09:32:36;;;;;;;;;4.00;2.00;;;;;53.97;10.76;101842.03;5049834;28;45169;-82
2022/07/16 09:35:26;;;;;;;;;3.00;2.67;;;;;53.51;10.85;101835.28;5052514;28;47201;-84
2022/07/16 09:37:52;;;;;;;;;2.67;2.00;;;;;53.17;10.85;101835.03;5046045;28;45571;-84
2022/07/16 09:40:37;;;;;;;;;2.00;2.00;;;;;52.49;11.24;101831.88;5061478;28;45857;-84
2022/07/16 09:43:19;;;;;;;;;2.00;2.00;;;;;52.38;11.05;101817.66;5049128;28;45957;-83
2022/07/16 09:45:47;;;;;;;;;2.00;2.00;;;;;52.76;10.68;101822.44;5043777;28;46125;-86
2022/07/16 09:48:27;;;;;;;;;1.33;1.33;;;;;52.63;10.94;101825.47;5059914;28;45453;-84
2022/07/16 09:50:55;;;;;;;;;2.00;2.00;;;;;52.57;10.69;101821.53;5044985;28;45587;-83
2022/07/16 09:53:24;;;;;;;;;5.67;5.67;;;;;52.54;10.43;101825.44;5046718;28;45775;-77
2022/07/16 09:56:09;;;;;;;;;3.00;3.00;;;;;52.01;10.87;101823.22;5044766;28;46747;-84
2022/07/16 09:58:36;;;;;;;;;3.00;3.00;;;;;52.18;11.06;101818.81;5035569;28;45687;-79
2022/07/16 10:01:03;;;;;;;;;3.00;3.00;;;;;52.52;10.21;101828.81;5054701;28;45488;-78
2022/07/16 10:03:30;;;;;;;;;2.00;2.00;;;;;52.50;10.57;101827.66;5068602;28;45756;-85
2022/07/16 10:05:58;;;;;;;;;1.00;1.00;;;;;52.58;10.22;101840.72;5075075;28;45716;-85
2022/07/16 10:08:24;;;;;;;;;3.00;2.00;;;;;52.56;10.31;101834.53;5056236;28;44705;-84
2022/07/16 10:10:50;;;;;;;;;2.00;2.00;;;;;52.50;10.38;101836.47;5071120;28;45347;-85
2022/07/16 10:13:24;;;;;;;;;3.67;3.00;;;;;52.36;10.72;101803.50;5065954;28;45703;-84
2022/07/16 10:15:49;;;;;;;;;1.33;1.33;;;;;52.59;10.12;101818.94;5047904;28;47262;-85
2022/07/16 10:18:37;;;;;;;;;6.00;3.33;;;;;52.96;10.48;101836.72;5051856;28;45813;-85
2022/07/16 10:21:21;;;;;;;;;1.00;1.00;;;;;52.55;10.30;101827.88;5043295;28;45489;-83
2022/07/16 10:23:51;;;;;;;;;2.00;2.00;;;;;52.20;9.81;101830.84;5051218;28;45654;-77
2022/07/16 10:26:19;;;;;;;;;2.00;2.00;;;;;51.68;10.31;101829.41;5035065;28;47214;-79
2022/07/16 10:28:54;;;;;;;;;3.00;3.00;;;;;51.30;10.74;101813.56;5031807;28;45406;-79
2022/07/16 10:34:35;;;;;;;;;3.00;3.00;;;;;51.32;10.31;101825.59;5042178;28;45802;-79
2022/07/16 10:37:09;;;;;;;;;2.00;2.00;;;;;51.33;10.71;101832.28;5038761;28;46678;-79
2022/07/16 10:39:49;;;;;;;;;2.33;2.00;;;;;51.39;10.33;101819.50;5036104;28;45463;-80
2022/07/16 10:42:17;;;;;;;;;4.00;2.00;;;;;51.68;10.37;101800.16;5047918;28;45546;-82
2022/07/16 10:44:44;;;;;;;;;1.67;1.67;;;;;52.30;10.61;101816.28;5055870;28;45515;-79
2022/07/16 10:47:10;;;;;;;;;3.00;3.00;;;;;52.05;10.41;101807.16;5041791;28;46634;-85
2022/07/16 10:49:36;;;;;;;;;5.00;2.00;;;;;51.44;10.76;101821.00;5055298;28;45504;-79
2022/07/16 10:52:14;;;;;;;;;2.00;2.00;;;;;50.68;11.33;101808.84;5061196;28;45478;-86
2022/07/16 10:54:49;;;;;;;;;1.00;1.00;;;;;50.40;10.95;101818.47;5044873;28;45613;-83
2022/07/16 10:57:40;;;;;;;;;4.00;4.00;;;;;50.38;11.30;101821.00;5053202;28;45495;-84
2022/07/16 11:00:06;;;;;;;;;6.67;6.67;;;;;50.54;10.85;101832.63;5035549;28;45453;-77
2022/07/16 11:02:42;;;;;;;;;3.00;3.00;;;;;50.35;11.68;101799.41;5038170;28;45451;-84
2022/07/16 11:05:11;;;;;;;;;3.00;3.00;;;;;50.71;11.34;101820.88;5042161;28;46156;-82
2022/07/16 11:07:40;;;;;;;;;3.00;3.00;;;;;50.58;11.29;101777.03;5029438;28;45600;-86
2022/07/16 11:10:06;;;;;;;;;2.67;2.67;;;;;50.29;11.31;101816.69;5049018;28;45451;-86
2022/07/16 11:12:37;;;;;;;;;4.67;3.33;;;;;48.90;11.18;101778.19;5023861;28;46208;-87
2022/07/16 11:15:07;;;;;;;;;4.00;3.00;;;;;47.98;12.06;101812.53;5027448;28;45706;-85
2022/07/16 11:17:36;;;;;;;;;3.00;3.00;;;;;46.79;12.69;101797.03;5032660;28;45641;-83
2022/07/16 11:20:14;;;;;;;;;3.00;3.00;;;;;45.79;12.92;101805.63;5024596;28;45767;-83
2022/07/16 11:22:42;;;;;;;;;3.67;3.67;;;;;44.57;13.66;101812.22;5031765;28;45375;-87
2022/07/16 11:25:09;;;;;;;;;2.67;2.33;;;;;43.29;14.13;101809.88;5043745;28;45270;-86
2022/07/16 11:27:43;;;;;;;;;7.00;5.00;;;;;42.09;15.06;101784.66;5050852;28;45575;-90
2022/07/16 11:30:14;;;;;;;;;3.00;3.00;;;;;41.05;16.19;101778.00;5042453;28;45684;-85
2022/07/16 11:32:47;;;;;;;;;2.00;2.00;;;;;40.18;16.96;101799.91;5047532;28;45716;-86
2022/07/16 11:35:16;;;;;;;;;3.00;3.00;;;;;39.24;17.52;101805.25;5032259;28;45566;-86
2022/07/16 11:38:04;;;;;;;;;3.33;3.33;;;;;38.11;18.65;101813.47;5044234;28;46942;-86
2022/07/16 11:40:41;;;;;;;;;2.67;2.67;;;;;37.09;19.41;101814.91;5057413;28;45555;-86
2022/07/16 11:43:07;;;;;;;;;5.00;3.33;;;;;36.50;20.36;101807.91;5052241;27;45398;-84
2022/07/16 11:45:48;;;;;;;;;2.00;2.00;;;;;35.88;20.55;101821.41;5041938;28;45709;-84